Maersk Tide — 9VEC — position and weather

sailwx.info

Track history (hours):
 
Tides and Currents Weather Stations Pressure Air Temp Water Temp Dewpoint Dewpoint Depression Visibility Wind Speed Wind Dir Waves Ship Positions

Maersk Tide

Last reported at 2017-Sep-15 02:44 UTC. Time now 2017-Sep-25 11:27 UTC.
Position N 19°34' W 096°04'.
Warning: this ship's position is 10 days out of date.

Type: Cargo ship. MMSI: 564185000.

Date/timePositionNaut miles runAvg speedWind from/ knotsBaromVisibWave heightAir tempDewpointWater temp
2017-Sep-15 02:44N 19°34' W 096°04'611.9
2017-Sep-15 02:12N 19°28' W 096°02'311.7
2017-Sep-15 01:58N 19°26' W 096°00'511.7
2017-Sep-15 01:30N 19°21' W 095°58'611.1
2017-Sep-15 01:00N 19°15' W 095°58'611.5
2017-Sep-15 00:31N 19°12' W 096°02'4 8.3
2017-Sep-15 00:00N 19°12' W 096°07'1 2.5
2017-Sep-14 23:27N 19°13' W 096°08'0 0.0
2017-Sep-14 22:57N 19°13' W 096°08'0 0.0
2017-Sep-14 22:27N 19°13' W 096°08'0 0.0
2017-Sep-14 21:57N 19°13' W 096°08'0 0.0
2017-Sep-14 21:27N 19°13' W 096°08'0 0.0
2017-Sep-14 20:51N 19°13' W 096°08'0 0.0
2017-Sep-14 20:27N 19°13' W 096°08'0 0.0
2017-Sep-14 19:57N 19°13' W 096°08'0 0.0
2017-Sep-14 19:27N 19°13' W 096°08'0 0.0
2017-Sep-14 18:57N 19°13' W 096°08'0 0.0
2017-Sep-14 18:27N 19°13' W 096°08'0 0.0
2017-Sep-14 17:57N 19°13' W 096°08'0 0.0
2017-Sep-14 17:15N 19°13' W 096°08'0 0.0
2017-Sep-14 16:57N 19°13' W 096°08'0 0.0
2017-Sep-14 16:21N 19°13' W 096°08'0 0.0
2017-Sep-14 15:57N 19°13' W 096°08'0 0.0
2017-Sep-14 15:27N 19°13' W 096°08'0 0.0
2017-Sep-14 14:51N 19°13' W 096°08'0 0.0
2017-Sep-14 14:18N 19°13' W 096°08'0 0.0
2017-Sep-14 13:57N 19°13' W 096°08'0 0.0
2017-Sep-14 13:27N 19°13' W 096°08'0 0.0
2017-Sep-14 12:57N 19°13' W 096°08'0 0.0
2017-Sep-14 12:27N 19°13' W 096°08'0 0.0
2017-Sep-14 11:57N 19°13' W 096°08'0 0.0
2017-Sep-14 11:31N 19°13' W 096°08'1 1.0
2017-Sep-14 11:00N 19°12' W 096°08'3 6.8
2017-Sep-14 10:30N 19°12' W 096°04'2 4.7
2017-Sep-14 10:00N 19°11' W 096°02'2 4.9
2017-Sep-14 09:30N 19°08' W 096°03'1 1.3
2017-Sep-14 08:41N 19°08' W 096°02'0 0.0
2017-Sep-14 08:26N 19°08' W 096°02'0 0.0
2017-Sep-14 07:56N 19°08' W 096°02'0 0.0
2017-Sep-14 07:26N 19°08' W 096°02'0 0.0
2017-Sep-14 06:56N 19°08' W 096°02'0 0.0
2017-Sep-14 06:20N 19°08' W 096°02'0 0.0
2017-Sep-14 06:00N 19°08' W 096°02'0 0.0
2017-Sep-14 05:30N 19°08' W 096°02'0 0.0
2017-Sep-14 04:57N 19°08' W 096°02'0 0.0
2017-Sep-14 04:29N 19°08' W 096°02'0 0.0
2017-Sep-14 03:57N 19°08' W 096°02'0 0.0
2017-Sep-14 03:26N 19°08' W 096°02'0 0.0
2017-Sep-14 03:01N 19°08' W 096°02'0 0.0
2017-Sep-14 02:29N 19°08' W 096°02'0 0.0
2017-Sep-14 01:55N 19°08' W 096°02'0 0.0
2017-Sep-14 01:26N 19°08' W 096°02'0 0.0
2017-Sep-14 00:55N 19°08' W 096°02'0 0.0
2017-Sep-14 00:30N 19°08' W 096°02'0 0.0
2017-Sep-14 00:01N 19°08' W 096°02'0 0.0
2017-Sep-13 23:30N 19°08' W 096°02'0 0.0
2017-Sep-13 22:58N 19°08' W 096°02'0 0.0
2017-Sep-13 22:30N 19°08' W 096°02'0 0.0
2017-Sep-13 22:00N 19°08' W 096°02'0 0.0
2017-Sep-13 21:30N 19°08' W 096°02'0 0.0
2017-Sep-13 21:00N 19°08' W 096°02'0 0.0
2017-Sep-13 20:29N 19°08' W 096°02'0 0.0
2017-Sep-13 19:58N 19°08' W 096°02'0 0.0
2017-Sep-13 19:30N 19°08' W 096°02'0 0.0
2017-Sep-13 18:58N 19°08' W 096°02'0 0.0
2017-Sep-13 18:30N 19°08' W 096°02'0 0.0
2017-Sep-13 17:58N 19°07' W 096°02'0 0.0
2017-Sep-13 17:27N 19°07' W 096°02'0 0.1
2017-Sep-13 17:01N 19°07' W 096°02'0 0.0
2017-Sep-13 16:30N 19°07' W 096°02'0 0.0
2017-Sep-13 15:49N 19°08' W 096°02'0 0.0
2017-Sep-13 15:26N 19°08' W 096°02'0 0.0
2017-Sep-13 15:00N 19°08' W 096°02'0 0.0
2017-Sep-13 14:30N 19°08' W 096°02'0 0.1
2017-Sep-13 13:59N 19°08' W 096°02'2 3.3
2017-Sep-13 13:30N 19°09' W 096°02'4 8.1
2017-Sep-13 13:00N 19°13' W 095°60'611.6
2017-Sep-13 12:30N 19°18' W 095°60'510.1
2017-Sep-13 12:00N 19°21' W 095°55'3 6.3
2017-Sep-13 11:30N 19°22' W 095°52'0 0.6
2017-Sep-13 11:00N 19°22' W 095°52'0 0.6
2017-Sep-13 10:30N 19°22' W 095°51'0 0.7
2017-Sep-13 10:00N 19°22' W 095°51'0 0.6
2017-Sep-13 09:30N 19°22' W 095°51'0 0.7
2017-Sep-13 08:59N 19°22' W 095°50'3 6.2
2017-Sep-13 08:30N 19°25' W 095°49'  
2017-Sep-08 07:00N 09°33' W 079°56'612.0
2017-Sep-08 06:29N 09°28' W 079°53'510.7
2017-Sep-08 06:00N 09°23' W 079°54'1 1.6
2017-Sep-08 05:28N 09°22' W 079°53'0 0.0
2017-Sep-08 04:58N 09°22' W 079°53'0 0.0
2017-Sep-08 04:28N 09°22' W 079°53'0 0.0
2017-Sep-08 03:58N 09°22' W 079°53'0 0.0
2017-Sep-08 03:28N 09°22' W 079°53'0 0.0
2017-Sep-08 02:58N 09°22' W 079°53'0 0.0
2017-Sep-08 02:28N 09°22' W 079°53'0 0.0
2017-Sep-08 01:58N 09°22' W 079°53'0 0.0
2017-Sep-08 01:28N 09°22' W 079°53'0 0.0
2017-Sep-08 00:58N 09°22' W 079°53'0 0.0
2017-Sep-08 00:28N 09°22' W 079°53'0 0.0
2017-Sep-07 23:58N 09°22' W 079°53'0 0.0
2017-Sep-07 23:28N 09°22' W 079°53'0 0.0
2017-Sep-07 22:58N 09°22' W 079°53'0 0.0
2017-Sep-07 22:28N 09°22' W 079°53'0 0.0
2017-Sep-07 21:58N 09°22' W 079°53'0 0.0
2017-Sep-07 21:28N 09°22' W 079°53'0 0.0
2017-Sep-07 20:58N 09°22' W 079°53'0 0.0
2017-Sep-07 20:28N 09°22' W 079°53'0 0.0
2017-Sep-07 19:58N 09°22' W 079°53'0 0.0
2017-Sep-07 19:28N 09°22' W 079°53'0 0.0
2017-Sep-07 19:00N 09°22' W 079°53'0 0.0
2017-Sep-07 18:30N 09°22' W 079°53'0 0.0
2017-Sep-07 17:58N 09°22' W 079°53'0 0.0
2017-Sep-07 17:28N 09°22' W 079°53'0 0.0
2017-Sep-07 16:58N 09°22' W 079°53'0 0.0
2017-Sep-07 16:28N 09°22' W 079°53'0 0.0
2017-Sep-07 15:58N 09°22' W 079°53'0 0.0
2017-Sep-07 15:28N 09°22' W 079°53'0 0.0
2017-Sep-07 14:58N 09°22' W 079°53'0 0.0
2017-Sep-07 14:28N 09°22' W 079°53'0 0.0
2017-Sep-07 13:58N 09°22' W 079°53'0 0.0
2017-Sep-07 13:28N 09°22' W 079°53'0 0.0
2017-Sep-07 12:58N 09°22' W 079°53'0 0.0
2017-Sep-07 12:28N 09°22' W 079°53'0 0.0
2017-Sep-07 11:58N 09°22' W 079°53'0 0.0
2017-Sep-07 11:28N 09°22' W 079°53'0 0.0
2017-Sep-07 10:58N 09°22' W 079°53'0 0.0
2017-Sep-07 10:28N 09°22' W 079°53'0 0.0
2017-Sep-07 09:58N 09°22' W 079°53'0 0.0
2017-Sep-07 09:30N 09°22' W 079°53'1 1.7
2017-Sep-07 09:00N 09°23' W 079°54'4 8.7
2017-Sep-07 08:30N 09°27' W 079°53'611.1
2017-Sep-07 08:00N 09°32' W 079°52'5 9.8
2017-Sep-07 07:30N 09°37' W 079°51'510.1
2017-Sep-07 06:58N 09°42' W 079°50'  
Track history (hours):
 
Tides and Currents Weather Stations Pressure Air Temp Water Temp Dewpoint Dewpoint Depression Visibility Wind Speed Wind Dir Waves Ship Positions

Maersk Tide

Last reported at 2017-Sep-15 02:44 UTC. Time now 2017-Sep-25 11:27 UTC.
Position N 19°34' W 096°04'.
Warning: this ship's position is 10 days out of date.

Type: Cargo ship. MMSI: 564185000.

Date/timePositionNaut miles runAvg speedWind from/ knotsBaromVisibWave heightAir tempDewpointWater temp
2017-Sep-15 02:44N 19°34' W 096°04'611.9
2017-Sep-15 02:12N 19°28' W 096°02'311.7
2017-Sep-15 01:58N 19°26' W 096°00'511.7
2017-Sep-15 01:30N 19°21' W 095°58'611.1
2017-Sep-15 01:00N 19°15' W 095°58'611.5
2017-Sep-15 00:31N 19°12' W 096°02'4 8.3
2017-Sep-15 00:00N 19°12' W 096°07'1 2.5
2017-Sep-14 23:27N 19°13' W 096°08'0 0.0
2017-Sep-14 22:57N 19°13' W 096°08'0 0.0
2017-Sep-14 22:27N 19°13' W 096°08'0 0.0
2017-Sep-14 21:57N 19°13' W 096°08'0 0.0
2017-Sep-14 21:27N 19°13' W 096°08'0 0.0
2017-Sep-14 20:51N 19°13' W 096°08'0 0.0
2017-Sep-14 20:27N 19°13' W 096°08'0 0.0
2017-Sep-14 19:57N 19°13' W 096°08'0 0.0
2017-Sep-14 19:27N 19°13' W 096°08'0 0.0
2017-Sep-14 18:57N 19°13' W 096°08'0 0.0
2017-Sep-14 18:27N 19°13' W 096°08'0 0.0
2017-Sep-14 17:57N 19°13' W 096°08'0 0.0
2017-Sep-14 17:15N 19°13' W 096°08'0 0.0
2017-Sep-14 16:57N 19°13' W 096°08'0 0.0
2017-Sep-14 16:21N 19°13' W 096°08'0 0.0
2017-Sep-14 15:57N 19°13' W 096°08'0 0.0
2017-Sep-14 15:27N 19°13' W 096°08'0 0.0
2017-Sep-14 14:51N 19°13' W 096°08'0 0.0
2017-Sep-14 14:18N 19°13' W 096°08'0 0.0
2017-Sep-14 13:57N 19°13' W 096°08'0 0.0
2017-Sep-14 13:27N 19°13' W 096°08'0 0.0
2017-Sep-14 12:57N 19°13' W 096°08'0 0.0
2017-Sep-14 12:27N 19°13' W 096°08'0 0.0
2017-Sep-14 11:57N 19°13' W 096°08'0 0.0
2017-Sep-14 11:31N 19°13' W 096°08'1 1.0
2017-Sep-14 11:00N 19°12' W 096°08'3 6.8
2017-Sep-14 10:30N 19°12' W 096°04'2 4.7
2017-Sep-14 10:00N 19°11' W 096°02'2 4.9
2017-Sep-14 09:30N 19°08' W 096°03'1 1.3
2017-Sep-14 08:41N 19°08' W 096°02'0 0.0
2017-Sep-14 08:26N 19°08' W 096°02'0 0.0
2017-Sep-14 07:56N 19°08' W 096°02'0 0.0
2017-Sep-14 07:26N 19°08' W 096°02'0 0.0
2017-Sep-14 06:56N 19°08' W 096°02'0 0.0
2017-Sep-14 06:20N 19°08' W 096°02'0 0.0
2017-Sep-14 06:00N 19°08' W 096°02'0 0.0
2017-Sep-14 05:30N 19°08' W 096°02'0 0.0
2017-Sep-14 04:57N 19°08' W 096°02'0 0.0
2017-Sep-14 04:29N 19°08' W 096°02'0 0.0
2017-Sep-14 03:57N 19°08' W 096°02'0 0.0
2017-Sep-14 03:26N 19°08' W 096°02'0 0.0
2017-Sep-14 03:01N 19°08' W 096°02'0 0.0
2017-Sep-14 02:29N 19°08' W 096°02'0 0.0
2017-Sep-14 01:55N 19°08' W 096°02'0 0.0
2017-Sep-14 01:26N 19°08' W 096°02'0 0.0
2017-Sep-14 00:55N 19°08' W 096°02'0 0.0
2017-Sep-14 00:30N 19°08' W 096°02'0 0.0
2017-Sep-14 00:01N 19°08' W 096°02'0 0.0
2017-Sep-13 23:30N 19°08' W 096°02'0 0.0
2017-Sep-13 22:58N 19°08' W 096°02'0 0.0
2017-Sep-13 22:30N 19°08' W 096°02'0 0.0
2017-Sep-13 22:00N 19°08' W 096°02'0 0.0
2017-Sep-13 21:30N 19°08' W 096°02'0 0.0
2017-Sep-13 21:00N 19°08' W 096°02'0 0.0
2017-Sep-13 20:29N 19°08' W 096°02'0 0.0
2017-Sep-13 19:58N 19°08' W 096°02'0 0.0
2017-Sep-13 19:30N 19°08' W 096°02'0 0.0
2017-Sep-13 18:58N 19°08' W 096°02'0 0.0
2017-Sep-13 18:30N 19°08' W 096°02'0 0.0
2017-Sep-13 17:58N 19°07' W 096°02'0 0.0
2017-Sep-13 17:27N 19°07' W 096°02'0 0.1
2017-Sep-13 17:01N 19°07' W 096°02'0 0.0
2017-Sep-13 16:30N 19°07' W 096°02'0 0.0
2017-Sep-13 15:49N 19°08' W 096°02'0 0.0
2017-Sep-13 15:26N 19°08' W 096°02'0 0.0
2017-Sep-13 15:00N 19°08' W 096°02'0 0.0
2017-Sep-13 14:30N 19°08' W 096°02'0 0.1
2017-Sep-13 13:59N 19°08' W 096°02'2 3.3
2017-Sep-13 13:30N 19°09' W 096°02'4 8.1
2017-Sep-13 13:00N 19°13' W 095°60'611.6
2017-Sep-13 12:30N 19°18' W 095°60'510.1
2017-Sep-13 12:00N 19°21' W 095°55'3 6.3
2017-Sep-13 11:30N 19°22' W 095°52'0 0.6
2017-Sep-13 11:00N 19°22' W 095°52'0 0.6
2017-Sep-13 10:30N 19°22' W 095°51'0 0.7
2017-Sep-13 10:00N 19°22' W 095°51'0 0.6
2017-Sep-13 09:30N 19°22' W 095°51'0 0.7
2017-Sep-13 08:59N 19°22' W 095°50'3 6.2
2017-Sep-13 08:30N 19°25' W 095°49'  
2017-Sep-08 07:00N 09°33' W 079°56'612.0
2017-Sep-08 06:29N 09°28' W 079°53'510.7
2017-Sep-08 06:00N 09°23' W 079°54'1 1.6
2017-Sep-08 05:28N 09°22' W 079°53'0 0.0
2017-Sep-08 04:58N 09°22' W 079°53'0 0.0
2017-Sep-08 04:28N 09°22' W 079°53'0 0.0
2017-Sep-08 03:58N 09°22' W 079°53'0 0.0
2017-Sep-08 03:28N 09°22' W 079°53'0 0.0
2017-Sep-08 02:58N 09°22' W 079°53'0 0.0
2017-Sep-08 02:28N 09°22' W 079°53'0 0.0
2017-Sep-08 01:58N 09°22' W 079°53'0 0.0
2017-Sep-08 01:28N 09°22' W 079°53'0 0.0
2017-Sep-08 00:58N 09°22' W 079°53'0 0.0
2017-Sep-08 00:28N 09°22' W 079°53'0 0.0
2017-Sep-07 23:58N 09°22' W 079°53'0 0.0
2017-Sep-07 23:28N 09°22' W 079°53'0 0.0
2017-Sep-07 22:58N 09°22' W 079°53'0 0.0
2017-Sep-07 22:28N 09°22' W 079°53'0 0.0
2017-Sep-07 21:58N 09°22' W 079°53'0 0.0
2017-Sep-07 21:28N 09°22' W 079°53'0 0.0
2017-Sep-07 20:58N 09°22' W 079°53'0 0.0
2017-Sep-07 20:28N 09°22' W 079°53'0 0.0
2017-Sep-07 19:58N 09°22' W 079°53'0 0.0
2017-Sep-07 19:28N 09°22' W 079°53'0 0.0
2017-Sep-07 19:00N 09°22' W 079°53'0 0.0
2017-Sep-07 18:30N 09°22' W 079°53'0 0.0
2017-Sep-07 17:58N 09°22' W 079°53'0 0.0
2017-Sep-07 17:28N 09°22' W 079°53'0 0.0
2017-Sep-07 16:58N 09°22' W 079°53'0 0.0
2017-Sep-07 16:28N 09°22' W 079°53'0 0.0
2017-Sep-07 15:58N 09°22' W 079°53'0 0.0
2017-Sep-07 15:28N 09°22' W 079°53'0 0.0
2017-Sep-07 14:58N 09°22' W 079°53'0 0.0
2017-Sep-07 14:28N 09°22' W 079°53'0 0.0
2017-Sep-07 13:58N 09°22' W 079°53'0 0.0
2017-Sep-07 13:28N 09°22' W 079°53'0 0.0
2017-Sep-07 12:58N 09°22' W 079°53'0 0.0
2017-Sep-07 12:28N 09°22' W 079°53'0 0.0
2017-Sep-07 11:58N 09°22' W 079°53'0 0.0
2017-Sep-07 11:28N 09°22' W 079°53'0 0.0
2017-Sep-07 10:58N 09°22' W 079°53'0 0.0
2017-Sep-07 10:28N 09°22' W 079°53'0 0.0
2017-Sep-07 09:58N 09°22' W 079°53'0 0.0
2017-Sep-07 09:30N 09°22' W 079°53'1 1.7
2017-Sep-07 09:00N 09°23' W 079°54'4 8.7
2017-Sep-07 08:30N 09°27' W 079°53'611.1
2017-Sep-07 08:00N 09°32' W 079°52'5 9.8
2017-Sep-07 07:30N 09°37' W 079°51'510.1
2017-Sep-07 06:58N 09°42' W 079°50'  

Dump ship's entire track history